createdAt,value
2022-11-21T00:01:28.716Z,17.30
2022-11-21T00:03:55.214Z,18.63
2022-11-21T00:06:23.518Z,19.58
2022-11-21T00:08:50.264Z,18.35
2022-11-21T00:11:16.902Z,19.98
2022-11-21T00:13:43.938Z,19.25
2022-11-21T00:16:13.759Z,19.70
2022-11-21T00:18:40.532Z,19.20
2022-11-21T00:21:10.194Z,20.02
2022-11-21T00:23:36.869Z,19.20
2022-11-21T00:26:13.808Z,18.80
2022-11-21T00:28:40.412Z,18.63
2022-11-21T00:31:07.266Z,18.42
2022-11-21T00:33:38.680Z,18.30
2022-11-21T00:36:12.054Z,19.00
2022-11-21T00:38:38.520Z,20.83
2022-11-21T00:41:05.848Z,19.73
2022-11-21T00:43:32.584Z,19.23
2022-11-21T00:46:01.459Z,19.40
2022-11-21T00:48:28.968Z,16.98
2022-11-21T00:50:55.598Z,18.95
2022-11-21T00:53:22.066Z,18.63
2022-11-21T00:55:48.970Z,18.05
2022-11-21T00:58:15.430Z,19.92
2022-11-21T01:00:42.225Z,18.83
2022-11-21T01:03:08.785Z,18.40
2022-11-21T01:05:35.242Z,18.65
2022-11-21T01:08:07.442Z,18.48
2022-11-21T01:10:35.829Z,18.55
2022-11-21T01:13:02.879Z,19.83
2022-11-21T01:15:30.423Z,19.30
2022-11-21T01:17:56.943Z,19.13
2022-11-21T01:20:23.495Z,19.33
2022-11-21T01:22:50.023Z,19.92
2022-11-21T01:25:16.532Z,18.40
2022-11-21T01:27:43.036Z,19.25
2022-11-21T01:30:13.300Z,19.02
2022-11-21T01:32:39.902Z,19.70
2022-11-21T01:35:09.659Z,19.42
2022-11-21T01:37:36.176Z,19.90
2022-11-21T01:40:03.331Z,19.17
2022-11-21T01:42:29.807Z,19.30
2022-11-21T01:44:56.374Z,20.17
2022-11-21T01:47:23.575Z,20.42
2022-11-21T01:49:51.658Z,20.95
2022-11-21T01:52:28.780Z,21.27
2022-11-21T01:55:02.156Z,21.92
2022-11-21T01:57:33.281Z,21.17
2022-11-21T02:00:06.781Z,19.17
2022-11-21T02:02:36.551Z,19.08
2022-11-21T02:05:07.736Z,18.40
2022-11-21T02:07:38.643Z,17.27
2022-11-21T02:10:10.066Z,16.50
2022-11-21T02:12:58.667Z,18.05
2022-11-21T02:15:27.735Z,17.95
2022-11-21T02:17:54.503Z,20.25
2022-11-21T02:20:25.970Z,20.50
2022-11-21T02:23:01.645Z,20.48
2022-11-21T02:25:30.788Z,20.48
2022-11-21T02:28:03.854Z,21.17
2022-11-21T02:30:32.583Z,18.65
2022-11-21T02:32:59.334Z,20.73
2022-11-21T02:35:25.921Z,19.60
2022-11-21T02:38:06.439Z,18.85
2022-11-21T02:40:38.129Z,18.73
2022-11-21T02:43:13.387Z,19.45
2022-11-21T02:45:42.329Z,19.10
2022-11-21T02:48:09.654Z,19.27
2022-11-21T02:50:38.585Z,19.20
2022-11-21T02:53:07.005Z,17.80
2022-11-21T02:55:33.524Z,17.45
2022-11-21T02:58:04.644Z,17.02
2022-11-21T03:02:58.887Z,17.73
2022-11-21T03:05:25.427Z,19.13
2022-11-21T03:07:51.933Z,18.00
2022-11-21T03:10:18.499Z,16.92
2022-11-21T03:12:44.968Z,15.25
2022-11-21T03:15:15.488Z,15.40
2022-11-21T03:17:42.678Z,16.67
2022-11-21T03:20:10.637Z,16.63
2022-11-21T03:22:37.167Z,16.88
2022-11-21T03:25:04.110Z,15.82
2022-11-21T03:27:30.564Z,17.35
2022-11-21T03:29:57.044Z,16.88
2022-11-21T03:32:23.520Z,17.33
2022-11-21T03:34:52.109Z,18.02
2022-11-21T03:37:18.745Z,18.48
2022-11-21T03:39:45.195Z,19.05
2022-11-21T03:42:11.697Z,19.13
2022-11-21T03:44:38.137Z,18.73
2022-11-21T03:47:04.710Z,18.40
2022-11-21T03:49:31.165Z,18.08
2022-11-21T03:51:57.676Z,19.73
2022-11-21T03:54:24.159Z,18.85
2022-11-21T03:56:50.612Z,17.25
2022-11-21T03:59:17.220Z,16.50
2022-11-21T04:01:43.956Z,16.95
2022-11-21T04:04:10.452Z,16.08
2022-11-21T04:06:36.892Z,16.63
2022-11-21T04:09:03.589Z,16.08
2022-11-21T04:11:30.106Z,17.25
2022-11-21T04:13:56.626Z,17.02
2022-11-21T04:16:23.059Z,18.08
2022-11-21T04:18:49.656Z,17.40
2022-11-21T04:21:16.105Z,18.33
2022-11-21T04:23:45.316Z,19.63
2022-11-21T04:26:11.924Z,18.80
2022-11-21T04:28:38.374Z,18.48
2022-11-21T04:31:10.476Z,19.10
2022-11-21T04:33:38.726Z,19.33
2022-11-21T04:36:06.088Z,19.33
2022-11-21T04:38:32.541Z,20.08
2022-11-21T04:40:59.013Z,19.80
2022-11-21T04:43:28.909Z,18.98
2022-11-21T04:45:55.390Z,20.70
2022-11-21T04:48:21.861Z,19.75
2022-11-21T04:50:48.683Z,20.77
2022-11-21T04:53:15.181Z,20.08
2022-11-21T04:55:41.766Z,20.20
2022-11-21T04:58:08.247Z,21.88
2022-11-21T05:00:34.853Z,21.25
2022-11-21T05:03:05.459Z,21.05
2022-11-21T05:05:32.461Z,23.35
2022-11-21T05:07:58.981Z,23.55
2022-11-21T05:10:25.649Z,23.52
2022-11-21T05:13:18.384Z,24.48
2022-11-21T05:15:48.263Z,23.30
2022-11-21T05:18:14.749Z,23.08
2022-11-21T05:20:41.239Z,24.02
2022-11-21T05:23:07.761Z,23.33
2022-11-21T05:25:34.222Z,22.70
2022-11-21T05:28:00.697Z,22.67
2022-11-21T05:30:27.196Z,23.13
2022-11-21T05:32:53.724Z,23.67
2022-11-21T05:35:20.236Z,23.58
2022-11-21T05:37:46.756Z,23.33
2022-11-21T05:40:13.623Z,24.48
2022-11-21T05:43:00.669Z,23.33
2022-11-21T05:45:27.403Z,24.27
2022-11-21T05:47:53.948Z,24.42
2022-11-21T05:50:20.435Z,25.00
2022-11-21T05:52:46.905Z,23.80
2022-11-21T05:55:13.469Z,25.00
2022-11-21T05:57:39.920Z,23.10
2022-11-21T06:00:06.950Z,24.63
2022-11-21T06:02:52.119Z,21.45
2022-11-21T06:05:18.650Z,18.08
2022-11-21T06:07:45.361Z,18.75
2022-11-21T06:10:11.859Z,19.48
2022-11-21T06:12:38.317Z,18.33
2022-11-21T06:15:04.980Z,18.80
2022-11-21T06:17:32.590Z,18.55
2022-11-21T06:19:59.137Z,19.60
2022-11-21T06:22:25.609Z,18.23
2022-11-21T06:24:52.123Z,18.85
2022-11-21T06:27:18.674Z,16.75
2022-11-21T06:29:45.128Z,19.05
2022-11-21T06:32:11.766Z,19.70
2022-11-21T06:34:38.288Z,19.55
2022-11-21T06:37:04.807Z,21.02
2022-11-21T06:39:31.263Z,19.60
2022-11-21T06:41:58.962Z,18.17
2022-11-21T06:44:25.655Z,17.90
2022-11-21T06:46:52.415Z,17.13
2022-11-21T06:49:18.960Z,18.45
2022-11-21T06:51:45.440Z,18.65
2022-11-21T06:54:16.525Z,19.80
2022-11-21T06:56:43.640Z,18.02
2022-11-21T06:59:10.185Z,17.45
2022-11-21T07:01:36.703Z,16.92
2022-11-21T07:04:03.376Z,17.77
2022-11-21T07:06:29.873Z,18.73
2022-11-21T07:09:25.183Z,17.15
2022-11-21T07:11:43.233Z,15.68
2022-11-21T07:14:10.056Z,16.30
2022-11-21T07:16:36.718Z,15.43
2022-11-21T07:19:03.318Z,15.80
2022-11-21T07:21:29.907Z,16.65
2022-11-21T07:23:56.448Z,18.27
2022-11-21T07:26:22.922Z,19.02
2022-11-21T07:28:49.371Z,15.38
2022-11-21T07:31:15.865Z,15.48
2022-11-21T07:33:46.635Z,14.85
2022-11-21T07:36:13.508Z,13.93
2022-11-21T07:38:41.399Z,14.38
2022-11-21T07:41:08.785Z,13.63
2022-11-21T07:43:35.259Z,12.52
2022-11-21T07:46:01.859Z,13.00
2022-11-21T07:48:28.327Z,12.27
2022-11-21T07:50:54.838Z,11.15
2022-11-21T07:53:21.360Z,11.93
2022-11-21T07:55:47.809Z,11.15
2022-11-21T07:58:16.413Z,11.93
2022-11-21T08:00:43.242Z,10.50
2022-11-21T08:03:13.940Z,11.75
2022-11-21T08:05:44.548Z,12.55
2022-11-21T08:08:12.783Z,11.20
2022-11-21T08:10:41.345Z,10.88
2022-11-21T08:13:08.150Z,12.00
2022-11-21T08:15:34.631Z,11.30
2022-11-21T08:18:14.761Z,11.48
2022-11-21T08:20:41.936Z,12.23
2022-11-21T08:23:09.936Z,12.32
2022-11-21T08:25:41.249Z,12.10
2022-11-21T08:28:09.533Z,12.05
2022-11-21T08:30:37.096Z,12.30
2022-11-21T08:33:04.181Z,12.43
2022-11-21T08:35:30.997Z,11.10
2022-11-21T08:37:59.048Z,11.80
2022-11-21T08:40:27.458Z,11.77
2022-11-21T08:43:10.517Z,11.57
2022-11-21T08:45:39.223Z,11.48
2022-11-21T08:48:11.446Z,11.68
2022-11-21T08:50:37.980Z,11.20
2022-11-21T08:53:04.482Z,10.75
2022-11-21T08:55:31.135Z,9.57
2022-11-21T08:57:58.515Z,8.85
2022-11-21T09:00:25.285Z,9.35
2022-11-21T09:02:51.743Z,9.00
2022-11-21T09:05:18.236Z,9.32
2022-11-21T09:07:44.841Z,8.90
2022-11-21T09:10:11.762Z,9.10
2022-11-21T09:12:38.306Z,9.45
2022-11-21T09:15:24.436Z,9.45
2022-11-21T09:18:07.114Z,9.27
2022-11-21T09:20:40.238Z,9.68
2022-11-21T09:23:14.999Z,9.98
2022-11-21T09:25:41.831Z,9.70
2022-11-21T09:28:10.164Z,8.75
2022-11-21T09:30:37.016Z,9.50
2022-11-21T09:33:06.228Z,9.45
2022-11-21T09:35:33.205Z,9.30
2022-11-21T09:38:00.368Z,9.43
2022-11-21T09:40:29.337Z,9.65
2022-11-21T09:43:35.972Z,10.50
2022-11-21T09:46:14.968Z,10.70
2022-11-21T09:48:57.617Z,10.43
2022-11-21T09:51:25.877Z,11.02
2022-11-21T09:54:03.809Z,10.57
2022-11-21T09:56:35.270Z,10.60
2022-11-21T09:59:20.514Z,10.45
2022-11-21T10:01:47.339Z,10.75
2022-11-21T10:04:14.165Z,10.75
2022-11-21T10:07:00.905Z,10.95
2022-11-21T10:09:49.508Z,11.13
2022-11-21T10:12:37.115Z,10.32
2022-11-21T10:15:03.875Z,10.63
2022-11-21T10:17:53.445Z,10.50
2022-11-21T10:20:28.920Z,9.75
2022-11-21T10:23:34.221Z,9.80
2022-11-21T10:26:50.188Z,9.77
2022-11-21T10:29:28.093Z,10.82
2022-11-21T10:31:58.537Z,10.70
2022-11-21T10:34:37.187Z,10.15
2022-11-21T10:37:15.595Z,9.60
2022-11-21T10:39:49.571Z,9.98
2022-11-21T10:42:45.110Z,10.13
2022-11-21T10:45:16.773Z,9.55
2022-11-21T10:47:44.842Z,9.43
2022-11-21T10:50:34.088Z,9.52
2022-11-21T10:53:29.463Z,9.70
2022-11-21T10:56:01.768Z,10.23
2022-11-21T10:58:42.626Z,9.13
2022-11-21T11:01:24.416Z,9.50
2022-11-21T11:04:27.253Z,10.23
2022-11-21T11:06:54.690Z,10.27
2022-11-21T11:09:34.868Z,9.90
2022-11-21T11:12:49.729Z,10.40
2022-11-21T11:15:22.840Z,10.65
2022-11-21T11:18:07.371Z,10.52
2022-11-21T11:20:40.433Z,10.38
2022-11-21T11:23:28.047Z,9.75
2022-11-21T11:25:59.517Z,9.63
2022-11-21T11:28:34.034Z,9.75
2022-11-21T11:31:01.223Z,10.90
2022-11-21T11:33:39.678Z,9.27
2022-11-21T11:36:15.275Z,8.95
2022-11-21T11:38:47.088Z,9.52
2022-11-21T11:42:03.415Z,9.07
2022-11-21T11:45:06.306Z,9.55
2022-11-21T11:47:41.830Z,10.25
2022-11-21T11:50:26.881Z,9.40
2022-11-21T11:53:02.579Z,9.32
2022-11-21T11:55:53.221Z,8.50
2022-11-21T11:58:41.765Z,10.30
2022-11-21T12:01:12.649Z,10.10
2022-11-21T12:03:58.326Z,11.55
2022-11-21T12:07:04.174Z,11.00
2022-11-21T12:09:22.044Z,11.10
2022-11-21T12:12:15.706Z,11.80
2022-11-21T12:15:48.504Z,11.68
2022-11-21T12:20:59.451Z,11.15
2022-11-21T12:23:42.324Z,10.95
2022-11-21T12:26:20.481Z,11.02
2022-11-21T12:29:17.323Z,11.68
2022-11-21T12:31:49.380Z,11.50
2022-11-21T12:34:27.911Z,11.27
2022-11-21T12:37:03.308Z,11.63
2022-11-21T12:40:17.929Z,10.20
2022-11-21T12:42:58.724Z,10.77
2022-11-21T12:45:32.091Z,9.18
2022-11-21T12:48:29.525Z,8.50
2022-11-21T12:51:28.855Z,9.77
2022-11-21T12:54:24.530Z,8.95
2022-11-21T12:57:01.932Z,9.00
2022-11-21T12:59:31.177Z,7.72
2022-11-21T13:02:08.811Z,8.05
2022-11-21T13:04:38.890Z,7.05
2022-11-21T13:07:06.689Z,7.75
2022-11-21T13:09:46.526Z,7.90
2022-11-21T13:12:40.840Z,9.25
2022-11-21T13:15:24.421Z,8.90
2022-11-21T13:17:57.898Z,8.70
2022-11-21T13:20:40.228Z,9.00
2022-11-21T13:23:42.021Z,8.27
2022-11-21T13:26:29.587Z,10.27
2022-11-21T13:29:13.779Z,10.40
2022-11-21T13:31:41.249Z,10.07
2022-11-21T13:34:38.344Z,10.75
2022-11-21T13:37:05.727Z,9.82
2022-11-21T13:39:36.889Z,10.13
2022-11-21T13:42:24.659Z,10.43
2022-11-21T13:44:51.624Z,10.27
2022-11-21T13:47:57.194Z,10.93
2022-11-21T13:50:59.206Z,10.48
2022-11-21T13:53:51.055Z,11.50
2022-11-21T13:56:47.171Z,11.10
2022-11-21T14:02:00.278Z,9.93
2022-11-21T14:04:46.998Z,10.68
2022-11-21T14:07:23.920Z,10.85
2022-11-21T14:09:52.713Z,11.82
2022-11-21T14:12:33.088Z,10.85
2022-11-21T14:15:00.979Z,10.35
2022-11-21T14:17:50.161Z,10.68
2022-11-21T14:20:27.255Z,11.20
2022-11-21T14:23:06.218Z,11.60
2022-11-21T14:25:41.427Z,11.50
2022-11-21T14:28:33.105Z,11.45
2022-11-21T14:31:02.128Z,10.85
2022-11-21T14:33:34.406Z,11.20
2022-11-21T14:36:12.869Z,10.32
2022-11-21T14:38:50.954Z,11.18
2022-11-21T14:41:26.946Z,10.75
2022-11-21T14:44:03.116Z,10.30
2022-11-21T14:46:40.699Z,10.60
2022-11-21T14:49:10.089Z,10.23
2022-11-21T14:51:36.950Z,9.45
2022-11-21T14:54:03.648Z,10.27
2022-11-21T14:56:32.159Z,9.73
2022-11-21T14:59:03.479Z,10.10
2022-11-21T15:01:32.384Z,10.52
2022-11-21T15:03:59.326Z,10.32
2022-11-21T15:06:29.960Z,9.63
2022-11-21T15:10:11.569Z,10.02
2022-11-21T15:12:05.169Z,9.75
2022-11-21T15:14:58.366Z,10.52
2022-11-21T15:17:26.344Z,9.48
2022-11-21T15:20:11.717Z,10.13
2022-11-21T15:22:41.325Z,9.93
2022-11-21T15:25:15.632Z,9.85
2022-11-21T15:27:43.351Z,9.75
2022-11-21T15:30:09.760Z,10.43
2022-11-21T15:33:02.974Z,10.32
2022-11-21T15:35:38.601Z,11.60
2022-11-21T15:38:30.201Z,10.40
2022-11-21T15:40:57.271Z,10.20
2022-11-21T15:44:14.909Z,10.25
2022-11-21T15:46:44.949Z,10.05
2022-11-21T15:49:32.083Z,9.60
2022-11-21T15:54:47.309Z,10.55
2022-11-21T15:57:14.293Z,9.85
2022-11-21T15:57:16.719Z,9.80
2022-11-21T15:59:43.733Z,9.18
2022-11-21T16:02:12.840Z,9.48
2022-11-21T16:04:39.444Z,9.40
2022-11-21T16:07:05.980Z,9.70
2022-11-21T16:09:33.124Z,9.43
2022-11-21T16:11:59.577Z,9.63
2022-11-21T16:14:26.063Z,9.32
2022-11-21T16:16:52.560Z,10.60
2022-11-21T16:19:19.001Z,10.50
2022-11-21T16:21:45.551Z,11.43
2022-11-21T16:24:12.003Z,11.48
2022-11-21T16:26:38.597Z,11.60
2022-11-21T16:29:08.244Z,11.93
2022-11-21T16:31:34.880Z,11.75
2022-11-21T16:34:01.679Z,12.32
2022-11-21T16:36:31.008Z,11.45
2022-11-21T16:39:01.824Z,12.77
2022-11-21T16:41:32.002Z,13.35
2022-11-21T16:43:58.763Z,12.30
2022-11-21T16:46:25.962Z,12.43
2022-11-21T16:48:59.857Z,12.30
2022-11-21T16:51:27.265Z,11.98
2022-11-21T16:53:54.351Z,11.35
2022-11-21T16:56:20.883Z,12.65
2022-11-21T16:58:47.391Z,12.27
2022-11-21T17:01:19.850Z,12.15
2022-11-21T17:03:51.164Z,12.25
2022-11-21T17:06:21.646Z,11.77
2022-11-21T17:08:48.425Z,12.00
2022-11-21T17:11:16.216Z,12.23
2022-11-21T17:13:43.960Z,11.93
2022-11-21T17:16:15.515Z,12.02
2022-11-21T17:18:42.595Z,12.25
2022-11-21T17:21:11.716Z,11.88
2022-11-21T17:23:40.378Z,13.77
2022-11-21T17:26:18.083Z,13.43
2022-11-21T17:28:50.402Z,12.98
2022-11-21T17:31:16.869Z,13.93
2022-11-21T17:33:44.175Z,13.60
2022-11-21T17:36:14.862Z,16.92
2022-11-21T17:38:43.064Z,16.67
2022-11-21T17:41:12.769Z,16.02
2022-11-21T17:43:39.505Z,13.60
2022-11-21T17:46:11.165Z,12.82
2022-11-21T17:48:38.484Z,12.95
2022-11-21T17:51:25.572Z,12.02
2022-11-21T17:53:52.976Z,12.30
2022-11-21T17:56:22.272Z,12.13
2022-11-21T17:58:49.657Z,13.68
2022-11-21T18:01:19.655Z,14.55
2022-11-21T18:03:53.082Z,13.98
2022-11-21T18:06:19.705Z,13.77
2022-11-21T18:08:48.281Z,12.75
2022-11-21T18:11:21.094Z,13.05
2022-11-21T18:13:48.575Z,13.70
2022-11-21T18:16:19.034Z,17.98
2022-11-21T18:18:45.615Z,19.02
2022-11-21T18:21:15.321Z,28.10
2022-11-21T18:23:43.976Z,27.98
2022-11-21T18:26:17.576Z,15.52
2022-11-21T18:28:44.034Z,15.27
2022-11-21T18:31:22.603Z,15.38
2022-11-21T18:33:54.160Z,14.85
2022-11-21T18:36:21.789Z,17.20
2022-11-21T18:38:53.711Z,16.23
2022-11-21T18:41:27.002Z,18.80
2022-11-21T18:43:59.023Z,19.67
2022-11-21T18:46:27.318Z,20.63
2022-11-21T18:49:04.289Z,18.80
2022-11-21T18:51:32.512Z,20.92
2022-11-21T18:54:03.992Z,21.55
2022-11-21T18:56:31.032Z,20.25
2022-11-21T18:59:00.543Z,21.63
2022-11-21T19:01:29.162Z,23.20
2022-11-21T19:03:56.719Z,22.02
2022-11-21T19:06:24.952Z,21.48
2022-11-21T19:08:53.510Z,21.48
2022-11-21T19:11:22.236Z,20.25
2022-11-21T19:13:48.919Z,21.85
2022-11-21T19:16:18.592Z,21.33
2022-11-21T19:18:59.774Z,21.45
2022-11-21T19:21:36.081Z,21.10
2022-11-21T19:24:02.888Z,21.38
2022-11-21T19:26:31.017Z,21.17
2022-11-21T19:29:00.592Z,21.45
2022-11-21T19:31:27.039Z,18.75
2022-11-21T19:33:53.558Z,17.85
2022-11-21T19:36:22.047Z,18.75
2022-11-21T19:38:51.195Z,19.30
2022-11-21T19:41:25.761Z,17.70
2022-11-21T19:43:54.341Z,17.63
2022-11-21T19:46:26.716Z,18.88
2022-11-21T19:48:55.490Z,18.13
2022-11-21T19:51:24.876Z,21.23
2022-11-21T19:53:53.829Z,19.95
2022-11-21T19:56:22.691Z,19.17
2022-11-21T19:58:49.321Z,17.08
2022-11-21T20:01:18.313Z,18.35
2022-11-21T20:03:50.720Z,19.23
2022-11-21T20:06:25.642Z,19.73
2022-11-21T20:08:57.312Z,20.85
2022-11-21T20:11:25.346Z,19.88
2022-11-21T20:13:52.323Z,19.48
2022-11-21T20:16:24.842Z,20.55
2022-11-21T20:18:52.361Z,21.23
2022-11-21T20:21:19.799Z,18.35
2022-11-21T20:23:47.141Z,12.07
2022-11-21T20:26:15.454Z,6.88
2022-11-21T20:28:45.168Z,14.23
2022-11-21T20:31:14.895Z,8.75
2022-11-21T20:33:43.743Z,7.30
2022-11-21T20:36:17.298Z,9.82
2022-11-21T20:38:45.183Z,15.63
2022-11-21T20:41:11.978Z,17.30
2022-11-21T20:44:20.061Z,17.58
2022-11-21T20:46:25.816Z,17.23
2022-11-21T20:48:52.928Z,16.77
2022-11-21T20:54:06.440Z,16.80
2022-11-21T20:56:34.602Z,16.27
2022-11-21T20:59:01.382Z,14.52
2022-11-21T21:01:30.789Z,16.65
2022-11-21T21:03:57.465Z,15.48
2022-11-21T21:06:24.267Z,16.17
2022-11-21T21:08:51.898Z,15.55
2022-11-21T21:11:49.698Z,16.42
2022-11-21T21:14:07.814Z,16.30
2022-11-21T21:16:34.407Z,17.20
2022-11-21T21:19:01.074Z,16.45
2022-11-21T21:21:30.504Z,15.80
2022-11-21T21:24:09.175Z,16.63
2022-11-21T21:26:42.105Z,15.30
2022-11-21T21:29:11.728Z,16.25
2022-11-21T21:31:38.178Z,16.33
2022-11-21T21:34:04.712Z,16.48
2022-11-21T21:36:32.151Z,16.85
2022-11-21T21:39:00.258Z,18.85
2022-11-21T21:41:28.617Z,18.95
2022-11-21T21:43:56.228Z,18.25
2022-11-21T21:46:25.508Z,18.33
2022-11-21T21:48:55.787Z,18.67
2022-11-21T21:51:23.661Z,17.67
2022-11-21T21:53:51.862Z,16.58
2022-11-21T21:56:20.507Z,16.30
2022-11-21T21:58:48.975Z,15.30
2022-11-21T22:01:21.078Z,17.35
2022-11-21T22:03:48.447Z,17.35
2022-11-21T22:06:17.484Z,18.02
2022-11-21T22:08:45.652Z,17.90
2022-11-21T22:11:14.658Z,19.80
2022-11-21T22:13:44.901Z,22.52
2022-11-21T22:16:15.423Z,20.05
2022-11-21T22:18:42.380Z,21.38
2022-11-21T22:21:20.491Z,21.52
2022-11-21T22:26:37.649Z,28.33
2022-11-21T22:29:04.182Z,28.70
2022-11-21T22:31:31.532Z,28.02
2022-11-21T22:33:58.791Z,28.27
2022-11-21T22:36:25.521Z,28.73
2022-11-21T22:38:56.329Z,27.27
2022-11-21T22:41:25.590Z,29.60
2022-11-21T22:43:54.819Z,28.15
2022-11-21T22:46:22.616Z,30.15
2022-11-21T22:48:49.229Z,27.58
2022-11-21T22:51:19.011Z,29.17
2022-11-21T22:53:46.654Z,29.23
2022-11-21T22:56:15.290Z,29.33
2022-11-21T22:58:45.937Z,27.92
2022-11-21T23:01:18.711Z,27.50
2022-11-21T23:03:45.917Z,27.75
2022-11-21T23:06:18.355Z,29.83
2022-11-21T23:08:45.432Z,28.75
2022-11-21T23:11:17.178Z,29.40
2022-11-21T23:13:45.428Z,31.27
2022-11-21T23:16:13.164Z,29.80
2022-11-21T23:18:40.197Z,32.25
2022-11-21T23:21:06.922Z,27.63
2022-11-21T23:23:37.073Z,30.65
2022-11-21T23:26:04.833Z,30.25
2022-11-21T23:28:31.305Z,31.42
2022-11-21T23:30:58.099Z,29.08
2022-11-21T23:33:25.521Z,31.40
2022-11-21T23:35:52.039Z,29.50
2022-11-21T23:38:19.147Z,30.73
2022-11-21T23:40:46.736Z,31.50
2022-11-21T23:43:14.555Z,31.48
2022-11-21T23:45:41.593Z,32.15
2022-11-21T23:48:08.493Z,32.47
2022-11-21T23:50:35.086Z,34.08
2022-11-21T23:53:01.896Z,32.13
2022-11-21T23:55:28.392Z,33.97
2022-11-21T23:57:54.990Z,33.80
